createdAt,value
2023-02-06T00:01:27.131Z,5.00
2023-02-06T00:03:54.180Z,4.90
2023-02-06T00:06:21.067Z,4.90
2023-02-06T00:08:47.916Z,4.90
2023-02-06T00:11:16.934Z,4.90
2023-02-06T00:13:45.563Z,4.80
2023-02-06T00:16:33.400Z,4.80
2023-02-06T00:19:00.623Z,4.80
2023-02-06T00:21:28.851Z,4.70
2023-02-06T00:23:57.802Z,4.60
2023-02-06T00:26:25.527Z,4.60
2023-02-06T00:28:52.426Z,4.60
2023-02-06T00:31:19.405Z,4.60
2023-02-06T00:33:46.461Z,4.70
2023-02-06T00:36:13.353Z,4.70
2023-02-06T00:38:40.348Z,4.80
2023-02-06T00:41:07.296Z,4.80
2023-02-06T00:43:34.349Z,4.90
2023-02-06T00:46:01.205Z,4.80
2023-02-06T00:48:28.123Z,4.80
2023-02-06T00:50:55.620Z,4.80
2023-02-06T00:53:22.733Z,4.80
2023-02-06T00:55:49.585Z,4.80
2023-02-06T00:58:16.454Z,4.80
2023-02-06T01:00:43.683Z,4.80
2023-02-06T01:03:10.616Z,4.80
2023-02-06T01:05:37.782Z,4.80
2023-02-06T01:08:05.002Z,4.80
2023-02-06T01:10:32.483Z,4.80
2023-02-06T01:12:59.737Z,4.80
2023-02-06T01:15:26.831Z,4.90
2023-02-06T01:17:53.672Z,4.90
2023-02-06T01:20:21.614Z,4.90
2023-02-06T01:22:48.719Z,4.90
2023-02-06T01:25:15.579Z,4.90
2023-02-06T01:27:42.430Z,4.90
2023-02-06T01:30:10.366Z,4.80
2023-02-06T01:32:38.822Z,4.80
2023-02-06T01:35:07.271Z,4.80
2023-02-06T01:37:34.664Z,4.80
2023-02-06T01:40:01.662Z,4.70
2023-02-06T01:42:28.704Z,4.80
2023-02-06T01:45:26.846Z,4.70
2023-02-06T01:47:59.542Z,4.70
2023-02-06T01:50:27.941Z,4.80
2023-02-06T01:52:55.094Z,4.80
2023-02-06T01:55:21.937Z,4.90
2023-02-06T01:57:49.105Z,4.80
2023-02-06T02:00:16.158Z,4.80
2023-02-06T02:02:45.223Z,4.80
2023-02-06T02:05:13.307Z,4.80
2023-02-06T02:08:01.079Z,4.70
2023-02-06T02:10:30.059Z,4.70
2023-02-06T02:12:57.373Z,4.70
2023-02-06T02:15:38.152Z,4.70
2023-02-06T02:18:28.993Z,4.70
2023-02-06T02:21:15.169Z,4.70
2023-02-06T02:24:00.558Z,4.70
2023-02-06T02:26:49.055Z,4.70
2023-02-06T02:29:27.845Z,4.80
2023-02-06T02:32:08.376Z,4.80
2023-02-06T02:35:12.606Z,4.80
2023-02-06T02:37:55.956Z,4.90
2023-02-06T02:40:40.992Z,4.90
2023-02-06T02:43:46.543Z,4.90
2023-02-06T02:46:38.472Z,4.90
2023-02-06T02:49:11.292Z,4.90
2023-02-06T02:51:39.540Z,5.00
2023-02-06T02:54:06.409Z,5.00
2023-02-06T02:56:33.827Z,5.00
2023-02-06T02:59:32.571Z,5.00
2023-02-06T03:02:04.570Z,4.90
2023-02-06T03:04:37.992Z,4.90
2023-02-06T03:07:21.109Z,4.80
2023-02-06T03:10:01.839Z,4.70
2023-02-06T03:12:37.822Z,4.70
2023-02-06T03:15:13.773Z,4.80
2023-02-06T03:18:05.881Z,4.70
2023-02-06T03:20:34.993Z,4.70
2023-02-06T03:23:03.901Z,4.70
2023-02-06T03:25:38.834Z,4.70
2023-02-06T03:28:12.059Z,4.70
2023-02-06T03:30:42.180Z,4.70
2023-02-06T03:33:13.657Z,4.70
2023-02-06T03:35:41.057Z,4.70
2023-02-06T03:38:09.261Z,4.60
2023-02-06T03:40:37.498Z,4.60
2023-02-06T03:43:05.797Z,4.60
2023-02-06T03:45:38.020Z,4.50
2023-02-06T03:48:11.611Z,4.60
2023-02-06T03:50:42.585Z,4.60
2023-02-06T03:53:12.216Z,4.50
2023-02-06T03:55:41.134Z,4.50
2023-02-06T03:58:12.523Z,4.50
2023-02-06T04:00:42.568Z,4.40
2023-02-06T04:03:11.257Z,4.40
2023-02-06T04:05:38.741Z,4.40
2023-02-06T04:08:06.379Z,4.40
2023-02-06T04:10:33.606Z,4.30
2023-02-06T04:13:00.487Z,4.20
2023-02-06T04:15:27.308Z,4.20
2023-02-06T04:18:00.489Z,4.20
2023-02-06T04:20:29.149Z,4.20
2023-02-06T04:22:56.287Z,4.20
2023-02-06T04:25:23.224Z,4.30
2023-02-06T04:27:50.373Z,4.20
2023-02-06T04:30:18.350Z,4.10
2023-02-06T04:32:45.390Z,4.10
2023-02-06T04:35:12.604Z,4.10
2023-02-06T04:37:39.558Z,4.10
2023-02-06T04:40:06.956Z,4.10
2023-02-06T04:42:33.902Z,4.20
2023-02-06T04:45:00.680Z,4.20
2023-02-06T04:47:27.545Z,4.20
2023-02-06T04:49:55.912Z,4.20
2023-02-06T04:52:22.753Z,4.10
2023-02-06T04:54:49.616Z,4.10
2023-02-06T04:57:16.542Z,4.10
2023-02-06T04:59:43.304Z,4.10
2023-02-06T05:02:10.139Z,4.10
2023-02-06T05:04:39.030Z,4.10
2023-02-06T05:07:06.169Z,4.10
2023-02-06T05:09:32.950Z,4.10
2023-02-06T05:11:59.965Z,4.10
2023-02-06T05:14:26.893Z,4.10
2023-02-06T05:16:53.833Z,4.00
2023-02-06T05:19:20.790Z,3.90
2023-02-06T05:21:47.694Z,3.90
2023-02-06T05:24:14.572Z,4.00
2023-02-06T05:26:41.648Z,4.00
2023-02-06T05:29:08.605Z,4.00
2023-02-06T05:31:35.665Z,4.00
2023-02-06T05:34:02.965Z,4.00
2023-02-06T05:36:29.825Z,4.10
2023-02-06T05:38:56.719Z,4.10
2023-02-06T05:41:23.887Z,4.10
2023-02-06T05:43:50.707Z,4.10
2023-02-06T05:46:17.641Z,4.00
2023-02-06T05:48:44.537Z,4.00
2023-02-06T05:51:11.707Z,4.00
2023-02-06T05:53:38.530Z,4.00
2023-02-06T05:56:05.887Z,4.00
2023-02-06T05:58:32.926Z,4.00
2023-02-06T06:00:59.807Z,4.10
2023-02-06T06:03:26.942Z,4.20
2023-02-06T06:05:54.189Z,4.30
2023-02-06T06:08:21.769Z,4.40
2023-02-06T06:10:52.901Z,4.40
2023-02-06T06:13:19.894Z,4.50
2023-02-06T06:15:51.755Z,4.60
2023-02-06T06:18:20.165Z,4.60
2023-02-06T06:20:47.559Z,4.60
2023-02-06T06:23:14.508Z,4.60
2023-02-06T06:25:41.386Z,4.50
2023-02-06T06:28:08.197Z,4.50
2023-02-06T06:30:35.811Z,4.50
2023-02-06T06:33:02.699Z,4.60
2023-02-06T06:35:29.679Z,4.70
2023-02-06T06:37:56.523Z,4.70
2023-02-06T06:40:23.456Z,4.60
2023-02-06T06:42:50.531Z,4.60
2023-02-06T06:45:17.596Z,4.60
2023-02-06T06:47:44.585Z,4.60
2023-02-06T06:50:11.500Z,4.60
2023-02-06T06:52:38.355Z,4.60
2023-02-06T06:55:05.550Z,4.60
2023-02-06T06:57:32.867Z,4.60
2023-02-06T06:59:59.756Z,4.50
2023-02-06T07:02:28.684Z,4.40
2023-02-06T07:04:55.862Z,4.30
2023-02-06T07:07:22.905Z,4.30
2023-02-06T07:09:49.758Z,4.30
2023-02-06T07:12:16.657Z,4.40
2023-02-06T07:14:43.582Z,4.40
2023-02-06T07:17:10.581Z,4.40
2023-02-06T07:19:37.522Z,4.40
2023-02-06T07:22:04.497Z,4.50
2023-02-06T07:24:31.562Z,4.60
2023-02-06T07:26:58.466Z,4.70
2023-02-06T07:29:25.788Z,4.70
2023-02-06T07:31:52.874Z,4.70
2023-02-06T07:34:19.779Z,4.70
2023-02-06T07:36:47.332Z,4.60
2023-02-06T07:39:14.292Z,4.70
2023-02-06T07:41:41.134Z,4.60
2023-02-06T07:44:08.018Z,4.50
2023-02-06T07:46:34.922Z,4.50
2023-02-06T07:49:01.955Z,4.50
2023-02-06T07:51:29.316Z,4.50
2023-02-06T07:53:56.347Z,4.50
2023-02-06T07:56:25.989Z,4.40
2023-02-06T07:58:54.848Z,4.40
2023-02-06T08:01:23.106Z,4.40
2023-02-06T08:03:54.488Z,4.40
2023-02-06T08:06:24.485Z,4.40
2023-02-06T08:08:52.042Z,4.30
2023-02-06T08:11:20.864Z,4.30
2023-02-06T08:13:48.672Z,4.30
2023-02-06T08:16:18.466Z,4.40
2023-02-06T08:18:45.591Z,4.30
2023-02-06T08:21:16.351Z,4.30
2023-02-06T08:23:43.914Z,4.30
2023-02-06T08:26:17.096Z,4.40
2023-02-06T08:28:45.895Z,4.50
2023-02-06T08:31:20.150Z,4.50
2023-02-06T08:33:47.551Z,4.60
2023-02-06T08:36:15.267Z,4.50
2023-02-06T08:38:44.382Z,4.50
2023-02-06T08:41:17.528Z,4.50
2023-02-06T08:43:46.644Z,4.60
2023-02-06T08:46:14.298Z,4.60
2023-02-06T08:48:41.250Z,4.50
2023-02-06T08:51:09.499Z,4.50
2023-02-06T08:53:37.250Z,4.50
2023-02-06T08:56:09.985Z,4.60
2023-02-06T08:58:37.757Z,4.70
2023-02-06T09:01:19.084Z,4.80
2023-02-06T09:03:46.777Z,4.80
2023-02-06T09:06:14.782Z,5.00
2023-02-06T09:08:42.517Z,5.10
2023-02-06T09:11:15.679Z,5.30
2023-02-06T09:13:44.530Z,5.30
2023-02-06T09:16:12.186Z,5.30
2023-02-06T09:18:39.706Z,5.40
2023-02-06T09:21:16.828Z,5.60
2023-02-06T09:23:49.417Z,5.90
2023-02-06T09:26:21.784Z,5.90
2023-02-06T09:28:54.886Z,6.10
2023-02-06T09:31:21.819Z,6.10
2023-02-06T09:33:48.810Z,6.00
2023-02-06T09:36:18.858Z,6.10
2023-02-06T09:38:48.573Z,6.10
2023-02-06T09:41:44.948Z,6.10
2023-02-06T09:44:44.113Z,6.00
2023-02-06T09:47:34.488Z,6.10
2023-02-06T09:50:07.604Z,5.80
2023-02-06T09:52:59.590Z,5.80
2023-02-06T09:55:42.784Z,6.00
2023-02-06T09:58:22.423Z,6.20
2023-02-06T10:01:06.246Z,6.10
2023-02-06T10:04:00.621Z,6.00
2023-02-06T10:06:34.760Z,6.10
2023-02-06T10:09:35.616Z,6.00
2023-02-06T10:12:13.290Z,6.00
2023-02-06T10:14:52.884Z,6.10
2023-02-06T10:17:30.393Z,6.20
2023-02-06T10:20:19.291Z,6.40
2023-02-06T10:23:04.972Z,6.50
2023-02-06T10:25:36.240Z,6.50
2023-02-06T10:28:17.815Z,6.60
2023-02-06T10:30:59.504Z,6.70
2023-02-06T10:33:33.326Z,6.80
2023-02-06T10:36:23.481Z,6.90
2023-02-06T10:39:40.897Z,7.00
2023-02-06T10:42:32.380Z,7.40
2023-02-06T10:45:19.043Z,7.40
2023-02-06T10:47:59.306Z,7.60
2023-02-06T10:50:34.919Z,7.90
2023-02-06T10:53:11.596Z,8.20
2023-02-06T10:55:49.573Z,8.00
2023-02-06T10:58:22.350Z,7.80
2023-02-06T11:00:51.347Z,7.60
2023-02-06T11:03:21.638Z,7.90
2023-02-06T11:05:50.125Z,8.10
2023-02-06T11:08:26.578Z,8.30
2023-02-06T11:10:53.671Z,8.10
2023-02-06T11:13:29.843Z,8.40
2023-02-06T11:16:01.585Z,8.50
2023-02-06T11:18:35.229Z,8.50
2023-02-06T11:21:02.644Z,8.50
2023-02-06T11:23:31.701Z,8.70
2023-02-06T11:26:15.647Z,8.80
2023-02-06T11:28:58.776Z,8.30
2023-02-06T11:31:51.168Z,8.30
2023-02-06T11:34:26.988Z,8.60
2023-02-06T11:36:59.691Z,8.50
2023-02-06T11:39:30.790Z,8.70
2023-02-06T11:42:07.062Z,8.70
2023-02-06T11:44:42.617Z,8.50
2023-02-06T11:47:32.693Z,8.30
2023-02-06T11:50:14.796Z,8.10
2023-02-06T11:52:46.647Z,8.70
2023-02-06T11:55:24.726Z,9.00
2023-02-06T11:58:12.279Z,9.00
2023-02-06T12:00:54.791Z,8.90
2023-02-06T12:03:50.338Z,8.80
2023-02-06T12:06:36.222Z,8.90
2023-02-06T12:09:09.714Z,8.70
2023-02-06T12:11:46.431Z,8.90
2023-02-06T12:14:34.935Z,9.20
2023-02-06T12:17:04.863Z,8.90
2023-02-06T12:19:44.692Z,9.30
2023-02-06T12:22:17.463Z,9.10
2023-02-06T12:24:48.338Z,9.10
2023-02-06T12:27:18.137Z,9.20
2023-02-06T12:29:57.759Z,9.20
2023-02-06T12:32:43.466Z,9.20
2023-02-06T12:35:21.861Z,8.90
2023-02-06T12:37:58.224Z,9.00
2023-02-06T12:40:39.840Z,9.20
2023-02-06T12:43:15.174Z,9.30
2023-02-06T12:45:57.487Z,9.30
2023-02-06T12:48:27.381Z,9.20
2023-02-06T12:51:20.802Z,9.40
2023-02-06T12:54:03.353Z,9.50
2023-02-06T12:56:42.687Z,9.50
2023-02-06T12:59:09.480Z,9.60
2023-02-06T13:02:01.026Z,9.30
2023-02-06T13:04:32.703Z,9.60
2023-02-06T13:07:14.666Z,9.80
2023-02-06T13:09:52.169Z,9.70
2023-02-06T13:12:33.831Z,9.70
2023-02-06T13:15:05.654Z,9.80
2023-02-06T13:17:36.629Z,9.50
2023-02-06T13:20:17.034Z,9.60
2023-02-06T13:22:49.597Z,9.60
2023-02-06T13:25:28.658Z,9.70
2023-02-06T13:28:01.378Z,9.90
2023-02-06T13:30:31.540Z,9.90
2023-02-06T13:33:23.920Z,9.90
2023-02-06T13:36:05.608Z,9.80
2023-02-06T13:38:35.192Z,9.60
2023-02-06T13:41:14.396Z,9.60
2023-02-06T13:44:15.102Z,9.40
2023-02-06T13:47:08.140Z,9.50
2023-02-06T13:50:08.726Z,9.50
2023-02-06T13:53:13.490Z,9.40
2023-02-06T13:55:52.544Z,9.50
2023-02-06T13:58:31.237Z,9.70
2023-02-06T14:00:59.871Z,9.60
2023-02-06T14:03:30.572Z,9.70
2023-02-06T14:06:34.612Z,9.50
2023-02-06T14:09:04.409Z,9.60
2023-02-06T14:11:39.824Z,9.30
2023-02-06T14:14:17.196Z,9.20
2023-02-06T14:17:03.537Z,9.20
2023-02-06T14:19:53.303Z,9.10
2023-02-06T14:22:20.236Z,9.20
2023-02-06T14:25:20.168Z,9.40
2023-02-06T14:28:12.549Z,9.00
2023-02-06T14:30:59.210Z,9.20
2023-02-06T14:33:35.891Z,9.10
2023-02-06T14:36:39.121Z,9.20
2023-02-06T14:39:40.787Z,9.20
2023-02-06T14:42:31.848Z,9.30
2023-02-06T14:45:21.737Z,9.30
2023-02-06T14:47:49.189Z,9.30
2023-02-06T14:50:35.018Z,9.20
2023-02-06T14:53:04.991Z,9.20
2023-02-06T14:55:41.049Z,9.30
2023-02-06T14:58:25.837Z,9.10
2023-02-06T15:00:54.336Z,9.10
2023-02-06T15:03:24.663Z,8.90
2023-02-06T15:06:07.230Z,9.00
2023-02-06T15:08:34.339Z,9.10
2023-02-06T15:11:18.349Z,9.10
2023-02-06T15:13:54.064Z,9.00
2023-02-06T15:16:21.521Z,8.80
2023-02-06T15:18:49.108Z,8.80
2023-02-06T15:21:19.314Z,8.80
2023-02-06T15:24:12.784Z,8.60
2023-02-06T15:26:55.935Z,8.90
2023-02-06T15:29:26.859Z,8.90
2023-02-06T15:31:56.715Z,8.60
2023-02-06T15:34:25.044Z,8.50
2023-02-06T15:36:52.661Z,8.60
2023-02-06T15:39:19.908Z,8.70
2023-02-06T15:41:50.518Z,8.70
2023-02-06T15:44:33.185Z,8.50
2023-02-06T15:47:04.603Z,8.50
2023-02-06T15:49:38.070Z,8.40
2023-02-06T15:52:05.606Z,8.40
2023-02-06T15:54:33.944Z,8.30
2023-02-06T15:57:27.966Z,8.20
2023-02-06T15:59:56.987Z,8.20
2023-02-06T16:02:31.598Z,8.30
2023-02-06T16:04:58.744Z,8.10
2023-02-06T16:07:32.444Z,8.10
2023-02-06T16:10:08.090Z,8.00
2023-02-06T16:12:37.493Z,7.90
2023-02-06T16:15:32.455Z,7.80
2023-02-06T16:18:01.820Z,7.80
2023-02-06T16:20:37.267Z,7.80
2023-02-06T16:23:29.351Z,7.70
2023-02-06T16:26:14.456Z,7.70
2023-02-06T16:28:55.413Z,7.70
2023-02-06T16:31:22.977Z,7.60
2023-02-06T16:33:52.684Z,7.50
2023-02-06T16:36:22.197Z,7.50
2023-02-06T16:39:02.816Z,7.50
2023-02-06T16:41:37.643Z,7.50
2023-02-06T16:44:10.375Z,7.50
2023-02-06T16:46:37.242Z,7.40
2023-02-06T16:49:15.414Z,7.40
2023-02-06T16:51:44.342Z,7.40
2023-02-06T16:54:27.300Z,7.40
2023-02-06T16:56:57.332Z,7.40
2023-02-06T16:59:24.528Z,7.30
2023-02-06T17:01:51.486Z,7.20
2023-02-06T17:04:18.336Z,7.30
2023-02-06T17:06:45.343Z,7.30
2023-02-06T17:09:17.330Z,7.20
2023-02-06T17:11:44.440Z,7.10
2023-02-06T17:14:11.831Z,7.10
2023-02-06T17:16:38.855Z,7.00
2023-02-06T17:19:05.697Z,6.90
2023-02-06T17:21:33.224Z,7.00
2023-02-06T17:24:00.411Z,6.90
2023-02-06T17:26:27.372Z,6.90
2023-02-06T17:28:54.498Z,6.90
2023-02-06T17:31:21.905Z,7.00
2023-02-06T17:33:49.114Z,7.00
2023-02-06T17:36:29.305Z,6.90
2023-02-06T17:38:59.066Z,6.80
2023-02-06T17:41:27.451Z,6.90
2023-02-06T17:43:54.613Z,6.90
2023-02-06T17:46:21.589Z,6.90
2023-02-06T17:48:48.748Z,6.90
2023-02-06T17:51:15.807Z,6.90
2023-02-06T17:53:42.661Z,6.90
2023-02-06T17:56:12.920Z,6.90
2023-02-06T17:58:43.448Z,6.80
2023-02-06T18:01:12.458Z,6.90
2023-02-06T18:03:39.798Z,6.80
2023-02-06T18:06:06.942Z,6.80
2023-02-06T18:08:33.987Z,6.80
2023-02-06T18:11:00.943Z,6.80
2023-02-06T18:13:28.739Z,6.80
2023-02-06T18:15:57.883Z,6.80
2023-02-06T18:18:26.099Z,6.90
2023-02-06T18:20:53.112Z,6.90
2023-02-06T18:23:20.067Z,6.90
2023-02-06T18:25:46.921Z,6.90
2023-02-06T18:28:14.762Z,6.90
2023-02-06T18:30:42.211Z,7.00
2023-02-06T18:33:09.476Z,6.90
2023-02-06T18:35:41.197Z,6.80
2023-02-06T18:38:09.921Z,6.90
2023-02-06T18:40:38.766Z,6.80
2023-02-06T18:43:06.893Z,6.80
2023-02-06T18:45:36.165Z,6.80
2023-02-06T18:48:04.679Z,6.70
2023-02-06T18:50:32.339Z,6.60
2023-02-06T18:52:59.469Z,6.60
2023-02-06T18:55:26.476Z,6.50
2023-02-06T18:57:53.804Z,6.40
2023-02-06T19:00:22.598Z,6.40
2023-02-06T19:02:50.267Z,6.40
2023-02-06T19:05:17.416Z,6.40
2023-02-06T19:07:49.518Z,6.30
2023-02-06T19:10:16.839Z,6.30
2023-02-06T19:12:44.246Z,6.30
2023-02-06T19:15:11.805Z,6.20
2023-02-06T19:17:38.996Z,6.10
2023-02-06T19:20:06.540Z,5.90
2023-02-06T19:22:37.881Z,5.90
2023-02-06T19:25:10.216Z,5.90
2023-02-06T19:27:38.512Z,5.90
2023-02-06T19:30:07.883Z,5.80
2023-02-06T19:32:35.293Z,5.80
2023-02-06T19:35:03.388Z,5.80
2023-02-06T19:37:30.173Z,5.90
2023-02-06T19:39:57.397Z,5.90
2023-02-06T19:42:24.443Z,5.90
2023-02-06T19:44:53.959Z,5.90
2023-02-06T19:47:21.213Z,5.80
2023-02-06T19:49:51.452Z,5.80
2023-02-06T19:52:18.629Z,5.80
2023-02-06T19:54:47.790Z,5.70
2023-02-06T19:57:16.031Z,5.70
2023-02-06T19:59:43.048Z,5.70
2023-02-06T20:02:14.484Z,5.60
2023-02-06T20:04:42.182Z,5.60
2023-02-06T20:07:09.028Z,5.60
2023-02-06T20:09:41.099Z,5.50
2023-02-06T20:12:10.216Z,5.40
2023-02-06T20:14:37.154Z,5.40
2023-02-06T20:17:04.703Z,5.30
2023-02-06T20:19:32.210Z,5.20
2023-02-06T20:22:00.653Z,5.00
2023-02-06T20:24:30.225Z,5.00
2023-02-06T20:26:59.825Z,4.90
2023-02-06T20:29:33.940Z,4.90
2023-02-06T20:32:01.346Z,4.90
2023-02-06T20:34:28.809Z,5.00
2023-02-06T20:36:56.903Z,5.00
2023-02-06T20:39:24.718Z,5.00
2023-02-06T20:41:51.977Z,4.80
2023-02-06T20:44:19.919Z,4.80
2023-02-06T20:46:47.468Z,4.80
2023-02-06T20:49:22.949Z,4.70
2023-02-06T20:51:50.623Z,4.70
2023-02-06T20:54:19.327Z,4.70
2023-02-06T20:56:46.493Z,4.80
2023-02-06T20:59:15.778Z,4.80
2023-02-06T21:01:43.267Z,4.80
2023-02-06T21:04:12.273Z,4.80
2023-02-06T21:06:39.611Z,4.90
2023-02-06T21:09:08.270Z,4.80
2023-02-06T21:11:39.779Z,4.80
2023-02-06T21:14:07.952Z,4.80
2023-02-06T21:16:37.638Z,4.70
2023-02-06T21:19:07.497Z,4.70
2023-02-06T21:21:34.820Z,4.70
2023-02-06T21:24:01.695Z,4.60
2023-02-06T21:26:28.817Z,4.50
2023-02-06T21:28:56.188Z,4.50
2023-02-06T21:31:25.806Z,4.60
2023-02-06T21:33:53.124Z,4.50
2023-02-06T21:36:21.208Z,4.50
2023-02-06T21:38:48.175Z,4.40
2023-02-06T21:41:18.242Z,4.40
2023-02-06T21:43:45.909Z,4.40
2023-02-06T21:46:13.619Z,4.40
2023-02-06T21:48:41.355Z,4.50
2023-02-06T21:51:14.236Z,4.50
2023-02-06T21:53:42.250Z,4.50
2023-02-06T21:56:13.562Z,4.50
2023-02-06T21:58:40.371Z,4.40
2023-02-06T22:01:08.897Z,4.30
2023-02-06T22:03:36.253Z,4.40
2023-02-06T22:06:08.767Z,4.40
2023-02-06T22:08:40.701Z,4.40
2023-02-06T22:11:16.007Z,4.40
2023-02-06T22:13:43.336Z,4.40
2023-02-06T22:16:11.533Z,4.50
2023-02-06T22:18:38.925Z,4.50
2023-02-06T22:21:08.535Z,4.60
2023-02-06T22:23:36.372Z,4.60
2023-02-06T22:26:03.892Z,4.60
2023-02-06T22:28:31.406Z,4.60
2023-02-06T22:31:06.252Z,4.50
2023-02-06T22:33:33.468Z,4.60
2023-02-06T22:36:03.762Z,4.60
2023-02-06T22:38:30.638Z,4.60
2023-02-06T22:41:03.413Z,4.60
2023-02-06T22:43:31.380Z,4.50
2023-02-06T22:45:58.414Z,4.40
2023-02-06T22:48:25.675Z,4.40
2023-02-06T22:50:55.555Z,4.40
2023-02-06T22:53:29.707Z,4.40
2023-02-06T22:56:24.180Z,4.30
2023-02-06T22:58:51.875Z,4.30
2023-02-06T23:01:21.494Z,4.20
2023-02-06T23:03:52.342Z,4.20
2023-02-06T23:06:19.438Z,4.30
2023-02-06T23:08:46.615Z,4.40
2023-02-06T23:11:15.235Z,4.40
2023-02-06T23:13:42.516Z,4.30
2023-02-06T23:16:10.251Z,4.20
2023-02-06T23:18:37.571Z,4.10
2023-02-06T23:21:10.826Z,4.10
2023-02-06T23:23:38.238Z,4.00
2023-02-06T23:26:10.170Z,4.00
2023-02-06T23:28:37.777Z,4.10
2023-02-06T23:31:05.758Z,4.00
2023-02-06T23:33:33.383Z,4.00
2023-02-06T23:36:08.305Z,4.00
2023-02-06T23:38:35.658Z,3.90
2023-02-06T23:41:14.136Z,3.90
2023-02-06T23:43:41.633Z,3.90
2023-02-06T23:46:12.133Z,3.90
2023-02-06T23:48:39.936Z,3.90
2023-02-06T23:51:06.967Z,4.00
2023-02-06T23:53:33.955Z,4.00
2023-02-06T23:56:00.915Z,4.00
2023-02-06T23:58:27.895Z,4.00
